Time;durP1;ratioP1;P1;durP2;ratioP2;P2;SDS_P1;SDS_P2;PMS_P1;PMS_P2;Temp;Humidity;BMP_temperature;BMP_pressure;BME280_temperature;BME280_humidity;BME280_pressure;Samples;Min_cycle;Max_cycle;Signal;HPM_P1;HPM_P2
2023/03/23 00:00:05;;;;;;;74.53;46.47;;;12.40;98.90;;;;;;5034100;28;20044;-74
2023/03/23 00:03:14;;;;;;;71.10;41.88;;;12.20;98.80;;;;;;5034010;28;20045;-74
2023/03/23 00:06:20;;;;;;;67.30;43.10;;;11.00;98.70;;;;;;5034374;28;20060;-73
2023/03/23 00:09:25;;;;;;;71.88;41.42;;;12.30;99.10;;;;;;5033390;28;20056;-74
2023/03/23 00:12:34;;;;;;;71.80;42.38;;;12.30;98.90;;;;;;5033798;28;20045;-73
2023/03/23 00:15:41;;;;;;;71.78;42.22;;;12.40;98.90;;;;;;5033510;28;20045;-73
2023/03/23 00:18:47;;;;;;;75.90;45.75;;;12.40;98.60;;;;;;5033278;28;20040;-72
2023/03/23 00:21:53;;;;;;;77.00;44.25;;;12.30;98.60;;;;;;5033257;28;20036;-73
2023/03/23 00:24:57;;;;;;;67.22;40.67;;;12.30;98.70;;;;;;5033395;28;20048;-73
2023/03/23 00:28:02;;;;;;;66.47;40.45;;;12.40;98.40;;;;;;5033158;28;20052;-73
2023/03/23 00:31:09;;;;;;;71.60;39.70;;;12.40;98.20;;;;;;5033609;28;20593;-73
2023/03/23 00:34:18;;;;;;;64.03;38.33;;;12.30;98.20;;;;;;5022030;28;20056;-74
2023/03/23 00:37:24;;;;;;;70.30;39.30;;;;;;;;;;5032826;28;20493;-73
2023/03/23 00:40:28;;;;;;;74.13;40.00;;;11.90;98.30;;;;;;5032286;28;20041;-74
2023/03/23 00:43:35;;;;;;;62.95;38.50;;;;;;;;;;5031766;28;20053;-73
2023/03/23 00:46:44;;;;;;;65.05;37.88;;;12.00;98.70;;;;;;5032671;28;20049;-74
2023/03/23 00:49:49;;;;;;;57.35;34.00;;;12.00;98.80;;;;;;5032500;28;20052;-73
2023/03/23 00:52:56;;;;;;;61.50;35.85;;;12.20;98.60;;;;;;5032647;28;20529;-73
2023/03/23 00:56:00;;;;;;;57.45;34.95;;;;;;;;;;5020857;28;20060;-73
2023/03/23 00:59:06;;;;;;;53.08;33.03;;;12.00;98.70;;;;;;5031701;28;20044;-74
2023/03/23 01:02:10;;;;;;;52.25;32.03;;;;;;;;;;5032528;28;20398;-73
2023/03/23 01:05:15;;;;;;;54.35;32.10;;;;;;;;;;5032183;28;20036;-73
2023/03/23 01:08:21;;;;;;;55.53;31.92;;;;;;;;;;5031546;28;20044;-73
2023/03/23 01:11:25;;;;;;;53.97;31.95;;;11.60;99.10;;;;;;5031183;28;20511;-72
2023/03/23 01:14:29;;;;;;;52.33;30.65;;;11.70;99.00;;;;;;5031429;28;20385;-72
2023/03/23 01:17:33;;;;;;;57.63;31.02;;;11.60;98.90;;;;;;5031301;28;20477;-73
2023/03/23 01:20:38;;;;;;;48.58;29.45;;;;;;;;;;5031863;28;20044;-73
2023/03/23 01:23:43;;;;;;;51.47;28.80;;;11.40;99.20;;;;;;5031729;28;20048;-74
2023/03/23 01:26:48;;;;;;;44.47;26.92;;;11.50;99.60;;;;;;5030775;28;20389;-73
2023/03/23 01:29:52;;;;;;;46.17;28.27;;;11.60;99.80;;;;;;5031707;28;20060;-73
2023/03/23 01:32:56;;;;;;;47.65;27.63;;;11.50;99.70;;;;;;5031783;28;20045;-73
2023/03/23 01:36:10;;;;;;;48.08;29.13;;;11.50;99.50;;;;;;5031038;28;20052;-73
2023/03/23 01:39:15;;;;;;;44.58;26.73;;;;;;;;;;5031009;28;20053;-73
2023/03/23 01:42:22;;;;;;;45.08;26.95;;;11.40;99.50;;;;;;5030646;28;20044;-73
2023/03/23 01:45:34;;;;;;;47.90;28.90;;;11.60;99.80;;;;;;5030573;28;20068;-74
2023/03/23 01:48:39;;;;;;;46.20;30.23;;;11.60;99.90;;;;;;5030827;28;20139;-72
2023/03/23 01:51:46;;;;;;;48.47;32.80;;;;;;;;;;5031557;28;20287;-73
2023/03/23 01:54:52;;;;;;;56.70;33.95;;;11.40;99.40;;;;;;5030871;28;20393;-72
2023/03/23 01:57:57;;;;;;;51.35;35.67;;;;;;;;;;5031360;28;20056;-73
2023/03/23 02:01:06;;;;;;;58.63;36.92;;;13.20;99.80;;;;;;5031473;28;20045;-73
2023/03/23 02:04:11;;;;;;;53.63;34.50;;;11.80;99.20;;;;;;5030189;28;20052;-72
2023/03/23 02:07:19;;;;;;;57.17;36.63;;;11.70;99.20;;;;;;5030454;28;20052;-72
2023/03/23 02:10:23;;;;;;;54.08;36.15;;;11.60;99.30;;;;;;5030239;28;20524;-72
2023/03/23 02:13:28;;;;;;;58.65;37.10;;;11.70;99.30;;;;;;5030335;28;20040;-73
2023/03/23 02:16:57;;;;;;;54.33;35.67;;;11.70;99.20;;;;;;5030220;28;20056;-73
2023/03/23 02:20:18;;;;;;;58.95;35.00;;;10.20;99.00;;;;;;5030444;28;20093;-73
2023/03/23 02:23:25;;;;;;;52.60;32.28;;;;;;;;;;5031180;28;20585;-73
2023/03/23 02:26:58;;;;;;;55.67;32.10;;;12.40;99.90;;;;;;5031143;28;20040;-73
2023/03/23 02:30:19;;;;;;;54.80;31.60;;;11.40;99.70;;;;;;5030883;28;20076;-73
2023/03/23 02:33:38;;;;;;;46.67;30.00;;;9.60;99.30;;;;;;5030948;28;20052;-73
2023/03/23 02:36:58;;;;;;;45.05;29.10;;;11.60;99.60;;;;;;5029915;28;20056;-73
2023/03/23 02:40:09;;;;;;;46.25;29.83;;;11.70;99.50;;;;;;5029982;28;20040;-73
2023/03/23 02:43:25;;;;;;;44.20;27.85;;;11.60;99.10;;;;;;5031462;28;20053;-73
2023/03/23 02:46:31;;;;;;;49.40;30.38;;;;;;;;;;5034921;28;20064;-73
2023/03/23 02:49:38;;;;;;;44.08;29.48;;;11.50;99.70;;;;;;5034362;28;20133;-73
2023/03/23 02:52:45;;;;;;;45.03;29.88;;;11.60;99.50;;;;;;5045709;28;20044;-74
2023/03/23 02:55:52;;;;;;;42.58;28.77;;;;;;;;;;5033643;28;20402;-73
2023/03/23 02:58:59;;;;;;;43.38;27.98;;;11.50;99.30;;;;;;5033956;28;20048;-73
2023/03/23 03:02:29;;;;;;;42.97;29.02;;;11.70;98.80;;;;;;5033757;28;20531;-72
2023/03/23 03:05:47;;;;;;;42.10;29.42;;;11.70;98.10;;;;;;5033585;28;20044;-72
2023/03/23 03:09:22;;;;;;;48.40;29.92;;;11.40;98.50;;;;;;5034627;28;20512;-72
2023/03/23 03:12:41;;;;;;;48.38;30.42;;;;;;;;;;5045123;28;20048;-72
2023/03/23 03:15:59;;;;;;;45.58;31.00;;;11.20;99.50;;;;;;5033278;28;20044;-72
2023/03/23 03:19:07;;;;;;;43.58;30.88;;;11.30;99.70;;;;;;5033575;28;20048;-73
2023/03/23 03:22:12;;;;;;;46.70;30.25;;;;;;;;;;5033394;28;20052;-73
2023/03/23 03:25:19;;;;;;;51.75;31.92;;;10.20;99.40;;;;;;5033546;28;20041;-73
2023/03/23 03:28:26;;;;;;;48.30;30.83;;;11.60;99.30;;;;;;5033412;28;20049;-73
2023/03/23 03:31:35;;;;;;;46.97;31.13;;;11.70;99.30;;;;;;5033521;28;20056;-73
2023/03/23 03:34:40;;;;;;;49.83;31.45;;;11.70;99.40;;;;;;5033913;28;20040;-73
2023/03/23 03:37:46;;;;;;;51.42;32.17;;;;;;;;;;5044584;28;20048;-73
2023/03/23 03:40:50;;;;;;;48.47;31.40;;;;;;;;;;5034049;28;20558;-72
2023/03/23 03:43:54;;;;;;;51.85;30.30;;;;;;;;;;5033017;28;20048;-72
2023/03/23 03:46:58;;;;;;;47.47;29.83;;;11.50;98.90;;;;;;5033733;28;20040;-73
2023/03/23 03:50:03;;;;;;;52.65;32.15;;;11.50;99.10;;;;;;5033824;28;20056;-72
2023/03/23 03:53:08;;;;;;;49.08;32.95;;;11.50;99.20;;;;;;5021392;28;20036;-73
2023/03/23 03:56:13;;;;;;;50.83;33.67;;;11.20;99.50;;;;;;5032220;28;20116;-73
2023/03/23 03:59:25;;;;;;;;;;;;;;;;;;5033122;28;20405;-74
2023/03/23 04:02:50;;;;;;;50.10;31.63;;;11.00;99.90;;;;;;5032855;28;19916;-73
2023/03/23 04:05:59;;;;;;;49.78;32.70;;;;;;;;;;5022911;28;20112;-74
2023/03/23 04:09:06;;;;;;;46.70;31.45;;;;;;;;;;5021655;28;20051;-73
2023/03/23 04:12:12;;;;;;;51.05;31.73;;;11.30;99.90;;;;;;5032558;28;20045;-73
2023/03/23 04:15:36;;;;;;;52.00;32.53;;;11.00;99.90;;;;;;5032384;28;20140;-74
2023/03/23 04:18:42;;;;;;;50.03;33.05;;;11.40;99.90;;;;;;5033279;28;20040;-72
2023/03/23 04:21:49;;;;;;;47.58;32.75;;;;;;;;;;5043777;28;20041;-72
2023/03/23 04:24:54;;;;;;;50.28;32.55;;;11.30;99.90;;;;;;5033036;28;20083;-74
2023/03/23 04:28:01;;;;;;;51.28;33.03;;;11.10;99.90;;;;;;5032371;28;20040;-73
2023/03/23 04:31:12;;;;;;;50.13;31.90;;;11.40;99.90;;;;;;5032264;28;20060;-73
2023/03/23 04:34:20;;;;;;;56.75;33.03;;;;;;;;;;5043576;28;20053;-73
2023/03/23 04:37:28;;;;;;;48.80;32.45;;;10.90;99.90;;;;;;5032249;28;20045;-72
2023/03/23 04:40:36;;;;;;;51.75;31.80;;;12.30;99.90;;;;;;5031765;28;20044;-73
2023/03/23 04:43:53;;;;;;;46.25;31.92;;;10.70;99.90;;;;;;5035088;28;20044;-73
2023/03/23 04:47:12;;;;;;;54.13;32.90;;;10.90;99.90;;;;;;5023935;28;20536;-73
2023/03/23 04:50:30;;;;;;;49.72;33.47;;;11.00;99.90;;;;;;5031627;28;20072;-73
2023/03/23 04:53:35;;;;;;;52.38;33.70;;;10.80;99.90;;;;;;5031910;28;20049;-73
2023/03/23 04:56:41;;;;;;;50.65;33.95;;;10.90;99.90;;;;;;5032507;28;20065;-73
2023/03/23 04:59:49;;;;;;;54.17;34.45;;;10.70;99.90;;;;;;5032542;28;20512;-73
2023/03/23 05:02:58;;;;;;;53.03;33.08;;;10.90;99.90;;;;;;5032242;28;20044;-74
2023/03/23 05:06:06;;;;;;;58.97;34.53;;;10.80;99.90;;;;;;5031250;28;20064;-73
2023/03/23 05:09:11;;;;;;;54.38;33.47;;;10.50;99.90;;;;;;5032259;28;20044;-73
2023/03/23 05:12:16;;;;;;;56.92;32.13;;;10.80;99.90;;;;;;5031381;28;20053;-74
2023/03/23 05:15:33;;;;;;;57.08;33.33;;;10.90;99.90;;;;;;5053941;28;20425;-75
2023/03/23 05:18:39;;;;;;;56.17;31.33;;;11.70;99.90;;;;;;5054099;28;20045;-73
2023/03/23 05:21:45;;;;;;;48.70;30.20;;;11.20;99.90;;;;;;5032242;28;20048;-73
2023/03/23 05:24:52;;;;;;;49.30;29.75;;;11.20;99.90;;;;;;5031877;28;20147;-74
2023/03/23 05:27:58;;;;;;;51.53;30.02;;;;;;;;;;5031599;28;20044;-73
2023/03/23 05:31:26;;;;;;;48.33;29.60;;;;;;;;;;5032247;28;20057;-73
2023/03/23 05:34:32;;;;;;;60.72;31.10;;;11.70;99.90;;;;;;5031953;28;20045;-74
2023/03/23 05:37:37;;;;;;;49.97;29.23;;;10.50;99.40;;;;;;5030888;28;20044;-74
2023/03/23 05:40:48;;;;;;;53.85;29.88;;;;;;;;;;5030701;28;20049;-72
2023/03/23 05:43:55;;;;;;;42.90;29.27;;;12.80;98.70;;;;;;5030808;28;20049;-73
2023/03/23 05:47:09;;;;;;;45.20;28.60;;;;;;;;;;5042671;28;20048;-74
2023/03/23 05:50:17;;;;;;;53.50;30.65;;;13.70;96.30;;;;;;5030973;28;20057;-74
2023/03/23 05:53:23;;;;;;;49.78;27.52;;;;;;;;;;5030834;28;20045;-74
2023/03/23 05:56:28;;;;;;;47.20;26.40;;;14.20;95.50;;;;;;5031003;28;20044;-73
2023/03/23 05:59:52;;;;;;;46.10;27.02;;;;;;;;;;5022025;28;20048;-73
2023/03/23 06:03:01;;;;;;;49.17;27.67;;;14.40;94.40;;;;;;5030380;28;20044;-75
2023/03/23 06:06:16;;;;;;;41.08;27.48;;;;;;;;;;5041621;28;20045;-74
2023/03/23 06:09:35;;;;;;;46.83;28.67;;;;;;;;;;5030199;28;20052;-73
2023/03/23 06:12:59;;;;;;;53.10;30.50;;;15.00;94.50;;;;;;5030675;28;20037;-74
2023/03/23 06:16:11;;;;;;;53.25;34.70;;;;;;;;;;5031702;28;20044;-73
2023/03/23 06:19:26;;;;;;;48.95;34.47;;;14.20;94.40;;;;;;5030481;28;20223;-73
2023/03/23 06:22:41;;;;;;;52.55;34.85;;;16.50;94.70;;;;;;5030413;28;20048;-74
2023/03/23 06:25:49;;;;;;;54.70;35.83;;;16.10;93.90;;;;;;5030456;28;20040;-73
2023/03/23 06:28:53;;;;;;;56.42;35.47;;;16.40;93.70;;;;;;5042222;28;20044;-73
2023/03/23 06:32:00;;;;;;;53.22;33.58;;;16.30;93.50;;;;;;5030270;28;20053;-75
2023/03/23 06:35:09;;;;;;;47.05;32.40;;;15.90;94.70;;;;;;5031082;28;20505;-59
2023/03/23 06:38:19;;;;;;;52.60;32.58;;;16.10;94.90;;;;;;5030535;28;20048;-60
2023/03/23 06:41:32;;;;;;;47.60;34.03;;;16.20;94.50;;;;;;5029629;28;20060;-61
2023/03/23 06:44:57;;;;;;;54.05;33.83;;;16.00;94.30;;;;;;5030189;28;20052;-62
2023/03/23 06:48:01;;;;;;;48.05;33.17;;;16.10;94.60;;;;;;5029744;28;20048;-61
2023/03/23 06:51:08;;;;;;;54.47;32.55;;;16.30;94.60;;;;;;5052508;28;20057;-61
2023/03/23 06:54:15;;;;;;;61.75;41.10;;;16.60;94.30;;;;;;5018171;28;20072;-63
2023/03/23 06:57:21;;;;;;;51.67;36.67;;;16.60;93.80;;;;;;5018478;28;20049;-61
2023/03/23 07:00:27;;;;;;;49.00;31.08;;;16.50;94.00;;;;;;5029568;28;20045;-60
2023/03/23 07:03:32;;;;;;;42.85;30.42;;;16.70;94.40;;;;;;5052253;28;20093;-62
2023/03/23 07:06:38;;;;;;;44.95;30.60;;;16.90;94.40;;;;;;5029473;28;20041;-62
2023/03/23 07:09:45;;;;;;;48.72;29.77;;;17.10;94.20;;;;;;5029287;28;20043;-62
2023/03/23 07:12:49;;;;;;;42.97;29.10;;;16.90;94.40;;;;;;5029579;28;20513;-62
2023/03/23 07:15:54;;;;;;;41.75;27.52;;;17.00;94.70;;;;;;5029443;28;20052;-62
2023/03/23 07:18:59;;;;;;;42.97;27.20;;;17.20;94.20;;;;;;5052164;28;20291;-61
2023/03/23 07:22:05;;;;;;;43.75;26.73;;;17.10;94.60;;;;;;5029407;28;20037;-61
2023/03/23 07:25:10;;;;;;;41.03;27.98;;;17.30;94.30;;;;;;5029464;28;20052;-60
2023/03/23 07:28:27;;;;;;;40.58;26.48;;;17.30;94.10;;;;;;5029308;28;20041;-61
2023/03/23 07:31:37;;;;;;;42.83;25.75;;;17.30;94.10;;;;;;5044906;28;20397;-64
2023/03/23 07:34:42;;;;;;;46.70;26.20;;;17.50;94.10;;;;;;5055529;28;20056;-63
2023/03/23 07:37:55;;;;;;;32.72;23.60;;;17.80;93.60;;;;;;5032818;28;20135;-62
2023/03/23 07:40:59;;;;;;;32.30;24.27;;;18.00;93.60;;;;;;5032527;28;20056;-61
2023/03/23 07:44:05;;;;;;;28.40;22.48;;;18.00;93.60;;;;;;5032147;28;20060;-61
2023/03/23 07:47:13;;;;;;;28.15;22.20;;;17.90;94.10;;;;;;5032012;28;20382;-60
2023/03/23 07:50:21;;;;;;;24.38;18.00;;;18.00;94.20;;;;;;5033234;28;20060;-61
2023/03/23 07:53:24;;;;;;;28.92;20.85;;;18.20;93.90;;;;;;5032441;28;20048;-62
2023/03/23 07:56:39;;;;;;;28.80;19.88;;;18.20;94.20;;;;;;5032314;28;20040;-60
2023/03/23 08:00:15;;;;;;;33.20;21.88;;;18.10;94.30;;;;;;5033050;28;20036;-62
2023/03/23 08:03:19;;;;;;;35.08;20.88;;;18.30;93.80;;;;;;5032193;28;20044;-62
2023/03/23 08:06:33;;;;;;;32.05;20.98;;;18.40;94.10;;;;;;5032212;28;20531;-61
2023/03/23 08:09:57;;;;;;;44.80;20.23;;;18.40;94.20;;;;;;5032220;28;20052;-61
2023/03/23 08:13:06;;;;;;;30.75;18.80;;;18.50;94.30;;;;;;5032913;28;20500;-61
2023/03/23 08:16:19;;;;;;;27.63;18.55;;;18.70;94.10;;;;;;5032278;28;20397;-64
2023/03/23 08:19:47;;;;;;;28.98;19.77;;;19.00;93.90;;;;;;5036452;28;20045;-62
2023/03/23 08:23:15;;;;;;;26.90;18.98;;;19.20;93.20;;;;;;5037258;28;20382;-61
2023/03/23 08:26:22;;;;;;;34.33;22.13;;;19.30;93.20;;;;;;5032918;28;20508;-62
2023/03/23 08:29:34;;;;;;;34.45;22.90;;;19.30;93.00;;;;;;5021681;28;20249;-62
2023/03/23 08:32:52;;;;;;;42.38;24.63;;;18.90;93.40;;;;;;5031769;28;20614;-62
2023/03/23 08:36:23;;;;;;;34.33;23.33;;;18.50;94.20;;;;;;5028713;28;20040;-61
2023/03/23 08:39:51;;;;;;;36.35;23.63;;;18.20;94.60;;;;;;5025940;28;20041;-61
2023/03/23 08:43:24;;;;;;;33.00;19.80;;;18.20;94.90;;;;;;5032185;28;20401;-61
2023/03/23 08:46:47;;;;;;;32.15;19.88;;;18.20;95.10;;;;;;5032152;28;20052;-61
2023/03/23 08:50:12;;;;;;;39.13;22.10;;;18.30;95.10;;;;;;5031136;28;20057;-62
2023/03/23 08:53:42;;;;;;;32.33;22.90;;;18.50;95.10;;;;;;5033737;28;20044;-62
2023/03/23 08:57:05;;;;;;;29.67;22.30;;;18.70;94.80;;;;;;5031981;28;20061;-62
2023/03/23 09:00:36;;;;;;;37.17;24.58;;;18.90;94.30;;;;;;5033637;28;20053;-61
2023/03/23 09:03:48;;;;;;;36.13;22.73;;;18.80;94.00;;;;;;5030962;28;20041;-62
2023/03/23 09:06:58;;;;;;;38.65;25.50;;;18.80;94.50;;;;;;5032030;28;20044;-61
2023/03/23 09:10:02;;;;;;;36.38;22.63;;;18.70;94.50;;;;;;5053898;28;20057;-61
2023/03/23 09:13:07;;;;;;;30.90;20.88;;;18.80;94.60;;;;;;5031491;28;20045;-61
2023/03/23 09:16:11;;;;;;;30.88;19.50;;;19.00;94.70;;;;;;5031980;28;20049;-61
2023/03/23 09:19:34;;;;;;;34.03;22.70;;;19.20;94.30;;;;;;5031049;28;20052;-61
2023/03/23 09:22:41;;;;;;;37.05;21.17;;;19.40;94.00;;;;;;5031700;28;20048;-62
2023/03/23 09:25:45;;;;;;;26.15;19.55;;;19.30;93.80;;;;;;5031263;28;20662;-61
2023/03/23 09:28:49;;;;;;;28.23;20.42;;;19.50;93.80;;;;;;5031639;28;20044;-62
2023/03/23 09:31:54;;;;;;;28.90;19.33;;;19.50;93.70;;;;;;5031466;28;20068;-61
2023/03/23 09:34:58;;;;;;;29.90;18.70;;;19.60;93.50;;;;;;5031135;28;20040;-61
2023/03/23 09:38:05;;;;;;;22.67;16.13;;;19.60;93.20;;;;;;5031084;28;20048;-62
2023/03/23 09:41:13;;;;;;;19.52;13.95;;;19.70;93.40;;;;;;5031121;28;20049;-61
2023/03/23 09:44:35;;;;;;;31.88;20.52;;;19.90;93.50;;;;;;5031000;28;20097;-61
2023/03/23 09:48:18;;;;;;;24.45;16.70;;;20.10;93.10;;;;;;5031116;28;20049;-62
2023/03/23 09:52:00;;;;;;;22.90;17.48;;;20.10;93.30;;;;;;5032859;28;20048;-62
2023/03/23 09:55:04;;;;;;;29.30;19.95;;;20.10;92.80;;;;;;5030693;28;20068;-62
2023/03/23 09:58:23;;;;;;;46.28;21.52;;;20.20;92.60;;;;;;5030764;28;20044;-61
2023/03/23 10:01:42;;;;;;;31.15;17.52;;;20.20;92.70;;;;;;5030463;28;20049;-58
2023/03/23 10:04:51;;;;;;;22.08;16.33;;;20.30;92.90;;;;;;5030922;28;20052;-61
2023/03/23 10:07:56;;;;;;;25.80;17.90;;;20.40;92.90;;;;;;5030987;28;20053;-61
2023/03/23 10:11:17;;;;;;;21.75;15.35;;;20.50;92.50;;;;;;5030294;28;20052;-60
2023/03/23 10:14:39;;;;;;;24.60;18.42;;;20.70;92.70;;;;;;5030934;28;20037;-61
2023/03/23 10:17:58;;;;;;;28.23;17.38;;;20.80;92.20;;;;;;5031030;28;20544;-60
2023/03/23 10:21:04;;;;;;;23.73;17.65;;;20.80;92.20;;;;;;5052766;28;20117;-60
2023/03/23 10:24:10;;;;;;;27.25;15.55;;;20.90;92.00;;;;;;5030391;28;20052;-60
2023/03/23 10:27:29;;;;;;;24.35;16.50;;;21.10;92.00;;;;;;5030918;28;20041;-60
2023/03/23 10:31:03;;;;;;;25.10;16.17;;;21.20;91.60;;;;;;5030514;28;20052;-61
2023/03/23 10:34:39;;;;;;;25.67;15.57;;;21.30;91.60;;;;;;5029934;28;20048;-61
2023/03/23 10:37:52;;;;;;;25.65;16.00;;;21.40;91.40;;;;;;5029841;28;20037;-61
2023/03/23 10:41:01;;;;;;;22.02;14.30;;;21.40;91.30;;;;;;5030829;28;20397;-59
2023/03/23 10:44:18;;;;;;;28.20;15.30;;;21.40;91.40;;;;;;5030403;28;20049;-59
2023/03/23 10:47:24;;;;;;;15.90;12.43;;;21.40;91.10;;;;;;5030302;28;20040;-59
2023/03/23 10:50:32;;;;;;;18.25;13.50;;;21.40;91.20;;;;;;5030128;28;20053;-61
2023/03/23 10:53:43;;;;;;;19.75;13.13;;;21.50;91.00;;;;;;5030073;28;20041;-60
2023/03/23 10:56:48;;;;;;;20.40;13.80;;;21.50;90.90;;;;;;5030687;28;20405;-59
2023/03/23 11:00:16;;;;;;;22.15;14.63;;;21.50;90.80;;;;;;5029445;28;20547;-59
2023/03/23 11:03:38;;;;;;;22.95;15.93;;;21.50;90.80;;;;;;5030260;28;20497;-58
2023/03/23 11:06:49;;;;;;;47.63;17.95;;;21.50;90.80;;;;;;5034174;28;20064;-59
2023/03/23 11:10:03;;;;;;;23.30;14.57;;;21.40;91.10;;;;;;5033970;28;20056;-60
2023/03/23 11:13:14;;;;;;;21.60;13.45;;;21.40;91.20;;;;;;5034260;28;20036;-60
2023/03/23 11:16:35;;;;;;;24.25;14.63;;;21.40;91.40;;;;;;5034202;28;20037;-59
2023/03/23 11:19:39;;;;;;;21.00;14.60;;;21.40;91.20;;;;;;5033970;28;20048;-59
2023/03/23 11:22:44;;;;;;;24.02;14.57;;;21.40;91.40;;;;;;5021536;28;20489;-59
2023/03/23 11:26:16;;;;;;;20.05;14.68;;;21.40;91.40;;;;;;5033796;28;20060;-59
2023/03/23 11:29:24;;;;;;;26.08;17.02;;;21.30;91.60;;;;;;5034148;28;20064;-62
2023/03/23 11:32:31;;;;;;;39.10;16.17;;;21.30;91.70;;;;;;5033725;28;20075;-59
2023/03/23 11:35:35;;;;;;;27.90;17.10;;;21.30;91.20;;;;;;5033714;28;20203;-59
2023/03/23 11:38:40;;;;;;;22.58;14.68;;;21.20;91.50;;;;;;5033699;28;20072;-59
2023/03/23 11:41:44;;;;;;;22.13;15.38;;;21.20;91.50;;;;;;5033618;28;20048;-59
2023/03/23 11:44:48;;;;;;;20.42;14.30;;;21.10;91.60;;;;;;5033233;28;20057;-60
2023/03/23 11:48:13;;;;;;;19.55;13.68;;;21.10;91.70;;;;;;5033733;28;20516;-59
2023/03/23 11:51:29;;;;;;;25.63;15.57;;;21.00;91.70;;;;;;5033103;28;20048;-58
2023/03/23 11:54:59;;;;;;;29.02;17.08;;;21.00;91.80;;;;;;5032485;28;20390;-60
2023/03/23 11:58:12;;;;;;;21.92;14.45;;;21.00;91.70;;;;;;5031512;28;20044;-60
2023/03/23 12:01:42;;;;;;;20.02;13.68;;;21.00;92.00;;;;;;5031262;28;20052;-58
2023/03/23 12:05:25;;;;;;;26.58;15.32;;;21.00;92.10;;;;;;5032893;28;20048;-58
2023/03/23 12:08:38;;;;;;;34.05;16.60;;;21.00;92.10;;;;;;5031329;28;20060;-59
2023/03/23 12:12:07;;;;;;;30.60;15.43;;;21.00;92.30;;;;;;5032789;28;20417;-60
2023/03/23 12:15:36;;;;;;;18.85;13.98;;;20.90;92.60;;;;;;5032404;28;20036;-59
2023/03/23 12:19:10;;;;;;;20.95;13.43;;;20.90;92.30;;;;;;5032826;28;20044;-59
2023/03/23 12:22:41;;;;;;;21.48;12.35;;;20.90;92.40;;;;;;5032379;28;20508;-60
2023/03/23 12:26:13;;;;;;;21.73;11.70;;;20.90;92.40;;;;;;5032931;28;20053;-60
2023/03/23 12:29:28;;;;;;;25.20;14.43;;;20.90;92.50;;;;;;5032739;28;20401;-61
2023/03/23 12:32:42;;;;;;;19.20;11.60;;;20.80;92.50;;;;;;5032148;28;20076;-60
2023/03/23 12:36:16;;;;;;;26.35;14.43;;;20.80;92.60;;;;;;5032665;28;20080;-60
2023/03/23 12:39:48;;;;;;;30.48;14.95;;;20.70;92.70;;;;;;5036450;28;20045;-59
2023/03/23 12:42:58;;;;;;;16.90;11.52;;;20.70;92.50;;;;;;5032250;28;20060;-61
2023/03/23 12:46:16;;;;;;;22.42;13.20;;;20.60;92.70;;;;;;5032347;28;20092;-60
2023/03/23 12:49:54;;;;;;;25.65;13.18;;;20.60;92.60;;;;;;5032289;28;20037;-60
2023/03/23 12:53:04;;;;;;;22.52;12.45;;;20.50;92.80;;;;;;5031488;28;20053;-61
2023/03/23 12:56:15;;;;;;;23.05;13.25;;;20.50;92.90;;;;;;5032037;28;20049;-60
2023/03/23 12:59:57;;;;;;;24.35;13.07;;;20.50;93.00;;;;;;5032072;28;20060;-59
2023/03/23 13:03:11;;;;;;;22.17;12.40;;;20.40;93.20;;;;;;5031847;28;20045;-59
2023/03/23 13:06:30;;;;;;;13.55;9.98;;;20.40;93.40;;;;;;5030410;28;20346;-61
2023/03/23 13:09:53;;;;;;;20.52;9.48;;;20.40;93.60;;;;;;5028871;28;20040;-60
2023/03/23 13:12:58;;;;;;;18.42;8.25;;;20.40;93.60;;;;;;5030197;28;20179;-60
2023/03/23 13:16:25;;;;;;;23.33;10.23;;;20.40;93.40;;;;;;5031397;28;20044;-58
2023/03/23 13:19:38;;;;;;;12.80;8.15;;;20.40;93.40;;;;;;5031304;28;20040;-61
2023/03/23 13:23:06;;;;;;;13.55;7.60;;;20.40;93.40;;;;;;5019345;28;20052;-60
2023/03/23 13:26:14;;;;;;;11.32;6.75;;;20.40;93.40;;;;;;5030991;28;20040;-59
2023/03/23 13:29:21;;;;;;;18.95;8.65;;;20.40;93.50;;;;;;5031305;28;20045;-59
2023/03/23 13:32:37;;;;;;;13.85;7.65;;;20.40;93.50;;;;;;5031642;28;20057;-59
2023/03/23 13:35:41;;;;;;;17.33;8.70;;;20.40;93.50;;;;;;5031480;28;20049;-59
2023/03/23 13:38:48;;;;;;;13.43;7.30;;;20.30;93.50;;;;;;5031173;28;20048;-59
2023/03/23 13:42:11;;;;;;;16.13;7.80;;;20.20;93.50;;;;;;5018947;28;20044;-60
2023/03/23 13:45:23;;;;;;;15.00;7.53;;;20.20;93.60;;;;;;5030744;28;20080;-59
2023/03/23 13:48:27;;;;;;;14.93;7.10;;;20.20;93.50;;;;;;5030142;28;20037;-59
2023/03/23 13:51:31;;;;;;;21.08;7.65;;;20.10;93.50;;;;;;5030874;28;20437;-59
2023/03/23 13:54:41;;;;;;;13.77;6.90;;;20.10;93.60;;;;;;5030828;28;20472;-60
2023/03/23 13:57:50;;;;;;;12.13;6.90;;;20.00;93.40;;;;;;5028790;28;20044;-58
2023/03/23 14:01:17;;;;;;;10.60;6.32;;;20.00;93.30;;;;;;5031060;28;20048;-60
2023/03/23 14:04:23;;;;;;;13.93;6.60;;;19.90;93.40;;;;;;5030908;28;20056;-60
2023/03/23 14:07:27;;;;;;;14.13;6.38;;;19.90;93.60;;;;;;5030312;28;20044;-59
2023/03/23 14:10:37;;;;;;;18.77;6.55;;;19.90;93.60;;;;;;5030750;28;20049;-59
2023/03/23 14:13:56;;;;;;;22.92;6.55;;;19.90;93.60;;;;;;5030644;28;20393;-59
2023/03/23 14:17:16;;;;;;;19.65;6.53;;;19.90;93.60;;;;;;5029982;28;20037;-59
2023/03/23 14:20:40;;;;;;;11.82;6.18;;;19.80;93.70;;;;;;5030945;28;20056;-59
2023/03/23 14:23:45;;;;;;;13.50;5.78;;;19.80;93.90;;;;;;5030898;28;20420;-59
2023/03/23 14:26:52;;;;;;;15.73;7.25;;;19.80;93.90;;;;;;5030676;28;20049;-59
2023/03/23 14:30:01;;;;;;;10.85;5.25;;;19.70;93.50;;;;;;5030650;28;20040;-59
2023/03/23 14:33:08;;;;;;;13.32;6.22;;;19.70;93.70;;;;;;5030432;28;20064;-60
2023/03/23 14:36:12;;;;;;;16.98;6.53;;;19.70;93.50;;;;;;5030458;28;20179;-60
2023/03/23 14:39:31;;;;;;;15.48;6.07;;;19.60;93.60;;;;;;5034177;28;20299;-60
2023/03/23 14:42:36;;;;;;;12.13;5.18;;;19.60;93.80;;;;;;5034817;28;20068;-59
2023/03/23 14:45:40;;;;;;;14.18;6.05;;;19.60;93.80;;;;;;5034270;28;20417;-60
2023/03/23 14:48:44;;;;;;;12.15;5.82;;;19.60;93.60;;;;;;5033930;28;20032;-59
2023/03/23 14:51:53;;;;;;;16.25;5.35;;;19.60;93.50;;;;;;5034263;28;20401;-60
2023/03/23 14:55:21;;;;;;;16.67;5.97;;;19.60;93.80;;;;;;5034431;28;20048;-59
2023/03/23 14:58:25;;;;;;;13.88;5.40;;;19.50;94.10;;;;;;5033658;28;20052;-58
2023/03/23 15:01:31;;;;;;;16.40;5.00;;;19.50;94.10;;;;;;5034477;28;20044;-60
2023/03/23 15:04:36;;;;;;;9.07;4.53;;;19.40;94.10;;;;;;5033912;28;20044;-60
2023/03/23 15:07:44;;;;;;;12.18;4.85;;;19.40;94.10;;;;;;5034487;28;20509;-59
2023/03/23 15:10:59;;;;;;;11.35;5.00;;;19.40;94.00;;;;;;5034154;28;20056;-59
2023/03/23 15:14:16;;;;;;;22.30;6.30;;;19.40;93.90;;;;;;5033817;28;20398;-60
2023/03/23 15:17:24;;;;;;;8.52;4.40;;;19.30;94.00;;;;;;5033792;28;20044;-60
2023/03/23 15:20:32;;;;;;;12.98;5.45;;;19.30;94.20;;;;;;5033048;28;20048;-61
2023/03/23 15:23:41;;;;;;;13.32;5.03;;;19.30;94.10;;;;;;5033827;28;20116;-59
2023/03/23 15:26:46;;;;;;;13.75;5.68;;;19.30;94.20;;;;;;5033861;28;20052;-59
2023/03/23 15:29:58;;;;;;;15.48;6.70;;;19.30;94.40;;;;;;5033801;28;20040;-59
2023/03/23 15:33:12;;;;;;;21.50;6.10;;;19.20;94.20;;;;;;5032821;28;20053;-60
2023/03/23 15:36:18;;;;;;;27.75;11.50;;;19.20;94.20;;;;;;5033282;28;20044;-59
2023/03/23 15:39:22;;;;;;;13.98;5.45;;;19.20;94.00;;;;;;5033577;28;20381;-60
2023/03/23 15:42:32;;;;;;;16.13;5.25;;;19.20;93.80;;;;;;5033522;28;20480;-60
2023/03/23 15:45:36;;;;;;;7.82;4.45;;;19.10;94.00;;;;;;5033308;28;20064;-59
2023/03/23 15:48:57;;;;;;;20.50;5.05;;;19.10;94.00;;;;;;5033475;28;20117;-61
2023/03/23 15:52:02;;;;;;;20.08;5.95;;;19.10;93.90;;;;;;5033257;28;20052;-61
2023/03/23 15:55:24;;;;;;;13.77;5.93;;;19.00;93.90;;;;;;5033334;28;20512;-61
2023/03/23 15:58:29;;;;;;;22.45;7.00;;;19.00;94.00;;;;;;5033145;28;20508;-58
2023/03/23 16:01:36;;;;;;;16.65;5.82;;;19.00;94.10;;;;;;5033132;28;20045;-60
2023/03/23 16:04:40;;;;;;;31.35;6.97;;;19.00;94.10;;;;;;5032962;28;20040;-60
2023/03/23 16:07:44;;;;;;;35.80;6.65;;;18.90;94.10;;;;;;5033323;28;20393;-60
2023/03/23 16:10:49;;;;;;;18.77;5.28;;;18.90;94.20;;;;;;5032906;28;20048;-60
2023/03/23 16:13:54;;;;;;;15.57;5.50;;;18.80;94.30;;;;;;5032239;28;20044;-60
2023/03/23 16:16:58;;;;;;;12.23;5.28;;;18.80;94.40;;;;;;5032911;28;20037;-59
2023/03/23 16:20:08;;;;;;;12.10;5.25;;;18.70;94.50;;;;;;5032699;28;20040;-60
2023/03/23 16:23:12;;;;;;;14.32;5.15;;;18.70;94.70;;;;;;5033034;28;20037;-58
2023/03/23 16:26:16;;;;;;;16.23;5.45;;;18.60;95.00;;;;;;5032997;28;20405;-61
2023/03/23 16:29:21;;;;;;;15.75;5.63;;;18.60;95.00;;;;;;5032893;28;20045;-59